sensor_id;sensor_type;location;lat;lon;timestamp;P1;durP1;ratioP1;P2;durP2;ratioP2
20318;SDS011;10317;47.254;11.314;2023-02-01T00:19:13;13.13;;;7.68;;
20318;SDS011;10317;47.254;11.314;2023-02-01T00:21:40;14.43;;;7.70;;
20318;SDS011;10317;47.254;11.314;2023-02-01T00:24:07;9.13;;;7.28;;
20318;SDS011;10317;47.254;11.314;2023-02-01T00:26:35;9.25;;;7.05;;
20318;SDS011;10317;47.254;11.314;2023-02-01T00:29:02;12.13;;;7.78;;
20318;SDS011;10317;47.254;11.314;2023-02-01T00:31:29;11.68;;;7.60;;
20318;SDS011;10317;47.254;11.314;2023-02-01T00:33:55;17.13;;;8.00;;
20318;SDS011;10317;47.254;11.314;2023-02-01T00:36:20;13.18;;;8.05;;
20318;SDS011;10317;47.254;11.314;2023-02-01T00:38:46;13.45;;;8.25;;
20318;SDS011;10317;47.254;11.314;2023-02-01T00:41:14;13.10;;;7.45;;
20318;SDS011;10317;47.254;11.314;2023-02-01T00:43:41;10.65;;;6.93;;
20318;SDS011;10317;47.254;11.314;2023-02-01T00:46:08;16.48;;;8.23;;
20318;SDS011;10317;47.254;11.314;2023-02-01T00:48:34;13.43;;;7.43;;
20318;SDS011;10317;47.254;11.314;2023-02-01T00:51:00;14.32;;;8.07;;
20318;SDS011;10317;47.254;11.314;2023-02-01T00:53:27;13.27;;;7.70;;
20318;SDS011;10317;47.254;11.314;2023-02-01T00:55:53;14.57;;;8.10;;
20318;SDS011;10317;47.254;11.314;2023-02-01T00:58:18;13.40;;;7.97;;
20318;SDS011;10317;47.254;11.314;2023-02-01T01:00:44;13.23;;;7.10;;
20318;SDS011;10317;47.254;11.314;2023-02-01T01:03:11;12.90;;;7.80;;
20318;SDS011;10317;47.254;11.314;2023-02-01T01:05:43;17.13;;;8.20;;
20318;SDS011;10317;47.254;11.314;2023-02-01T01:08:10;11.68;;;7.32;;
20318;SDS011;10317;47.254;11.314;2023-02-01T01:10:35;13.27;;;7.60;;
20318;SDS011;10317;47.254;11.314;2023-02-01T01:13:01;12.65;;;7.57;;
20318;SDS011;10317;47.254;11.314;2023-02-01T01:15:27;8.77;;;6.53;;
20318;SDS011;10317;47.254;11.314;2023-02-01T01:17:52;17.25;;;7.80;;
20318;SDS011;10317;47.254;11.314;2023-02-01T01:20:18;13.50;;;6.97;;
20318;SDS011;10317;47.254;11.314;2023-02-01T01:22:46;15.25;;;7.30;;
20318;SDS011;10317;47.254;11.314;2023-02-01T01:45:23;12.75;;;7.25;;
20318;SDS011;10317;47.254;11.314;2023-02-01T01:47:58;14.05;;;7.50;;
20318;SDS011;10317;47.254;11.314;2023-02-01T01:50:35;10.52;;;7.20;;
20318;SDS011;10317;47.254;11.314;2023-02-01T01:53:10;9.85;;;7.45;;
20318;SDS011;10317;47.254;11.314;2023-02-01T01:55:38;10.32;;;7.40;;
20318;SDS011;10317;47.254;11.314;2023-02-01T01:58:12;14.45;;;6.57;;
20318;SDS011;10317;47.254;11.314;2023-02-01T02:00:41;15.18;;;7.60;;
20318;SDS011;10317;47.254;11.314;2023-02-01T02:03:15;11.40;;;7.00;;
20318;SDS011;10317;47.254;11.314;2023-02-01T02:05:46;10.02;;;7.10;;
20318;SDS011;10317;47.254;11.314;2023-02-01T02:08:14;12.63;;;7.40;;
20318;SDS011;10317;47.254;11.314;2023-02-01T02:10:40;10.60;;;6.57;;
20318;SDS011;10317;47.254;11.314;2023-02-01T02:13:25;10.45;;;6.57;;
20318;SDS011;10317;47.254;11.314;2023-02-01T02:19:00;10.52;;;6.72;;
20318;SDS011;10317;47.254;11.314;2023-02-01T02:27:09;10.80;;;7.10;;
20318;SDS011;10317;47.254;11.314;2023-02-01T02:38:16;12.13;;;7.45;;
20318;SDS011;10317;47.254;11.314;2023-02-01T02:40:51;11.05;;;7.15;;
20318;SDS011;10317;47.254;11.314;2023-02-01T02:43:22;11.32;;;6.65;;
20318;SDS011;10317;47.254;11.314;2023-02-01T02:46:16;9.82;;;6.68;;
20318;SDS011;10317;47.254;11.314;2023-02-01T02:52:57;10.45;;;6.35;;
20318;SDS011;10317;47.254;11.314;2023-02-01T02:55:47;11.30;;;6.97;;
20318;SDS011;10317;47.254;11.314;2023-02-01T02:58:15;9.95;;;6.63;;
20318;SDS011;10317;47.254;11.314;2023-02-01T03:01:00;11.73;;;7.18;;
20318;SDS011;10317;47.254;11.314;2023-02-01T03:03:46;11.93;;;7.00;;
20318;SDS011;10317;47.254;11.314;2023-02-01T03:06:33;9.55;;;6.75;;
20318;SDS011;10317;47.254;11.314;2023-02-01T03:08:59;10.75;;;6.82;;
20318;SDS011;10317;47.254;11.314;2023-02-01T03:11:29;7.70;;;5.97;;
20318;SDS011;10317;47.254;11.314;2023-02-01T03:14:15;12.95;;;6.80;;
20318;SDS011;10317;47.254;11.314;2023-02-01T03:16:45;11.27;;;6.85;;
20318;SDS011;10317;47.254;11.314;2023-02-01T03:19:27;10.07;;;6.50;;
20318;SDS011;10317;47.254;11.314;2023-02-01T03:22:10;10.20;;;6.03;;
20318;SDS011;10317;47.254;11.314;2023-02-01T03:24:46;10.68;;;6.50;;
20318;SDS011;10317;47.254;11.314;2023-02-01T03:30:20;11.30;;;6.88;;
20318;SDS011;10317;47.254;11.314;2023-02-01T03:32:51;9.00;;;6.60;;
20318;SDS011;10317;47.254;11.314;2023-02-01T03:58:54;12.30;;;6.63;;
20318;SDS011;10317;47.254;11.314;2023-02-01T04:08:42;12.18;;;6.28;;
20318;SDS011;10317;47.254;11.314;2023-02-01T04:11:34;11.95;;;6.50;;
20318;SDS011;10317;47.254;11.314;2023-02-01T04:30:41;9.25;;;6.00;;
20318;SDS011;10317;47.254;11.314;2023-02-01T04:33:07;8.65;;;6.13;;
20318;SDS011;10317;47.254;11.314;2023-02-01T04:35:33;9.38;;;5.78;;
20318;SDS011;10317;47.254;11.314;2023-02-01T04:37:59;10.90;;;6.20;;
20318;SDS011;10317;47.254;11.314;2023-02-01T04:40:25;10.85;;;6.70;;
20318;SDS011;10317;47.254;11.314;2023-02-01T04:42:50;9.00;;;6.40;;
20318;SDS011;10317;47.254;11.314;2023-02-01T04:45:16;7.28;;;5.53;;
20318;SDS011;10317;47.254;11.314;2023-02-01T04:47:42;9.88;;;5.43;;
20318;SDS011;10317;47.254;11.314;2023-02-01T04:50:07;8.75;;;5.55;;
20318;SDS011;10317;47.254;11.314;2023-02-01T04:52:35;10.45;;;5.95;;
20318;SDS011;10317;47.254;11.314;2023-02-01T04:55:02;8.65;;;6.45;;
20318;SDS011;10317;47.254;11.314;2023-02-01T04:57:28;11.47;;;6.23;;
20318;SDS011;10317;47.254;11.314;2023-02-01T04:59:54;7.63;;;5.70;;
20318;SDS011;10317;47.254;11.314;2023-02-01T05:02:20;10.17;;;5.40;;
20318;SDS011;10317;47.254;11.314;2023-02-01T05:04:45;8.70;;;5.33;;
20318;SDS011;10317;47.254;11.314;2023-02-01T05:07:11;7.73;;;5.03;;
20318;SDS011;10317;47.254;11.314;2023-02-01T05:09:37;8.13;;;5.20;;
20318;SDS011;10317;47.254;11.314;2023-02-01T05:12:03;8.20;;;5.70;;
20318;SDS011;10317;47.254;11.314;2023-02-01T05:14:47;5.93;;;4.97;;
20318;SDS011;10317;47.254;11.314;2023-02-01T05:17:13;9.27;;;5.57;;
20318;SDS011;10317;47.254;11.314;2023-02-01T05:19:38;6.47;;;4.50;;
20318;SDS011;10317;47.254;11.314;2023-02-01T05:22:04;6.17;;;5.43;;
20318;SDS011;10317;47.254;11.314;2023-02-01T05:24:29;7.03;;;5.07;;
20318;SDS011;10317;47.254;11.314;2023-02-01T05:26:55;8.07;;;5.47;;
20318;SDS011;10317;47.254;11.314;2023-02-01T05:29:21;7.77;;;5.63;;
20318;SDS011;10317;47.254;11.314;2023-02-01T05:31:47;6.90;;;4.97;;
20318;SDS011;10317;47.254;11.314;2023-02-01T05:34:13;12.57;;;5.47;;
20318;SDS011;10317;47.254;11.314;2023-02-01T05:36:40;9.13;;;6.13;;
20318;SDS011;10317;47.254;11.314;2023-02-01T05:39:06;6.38;;;5.47;;
20318;SDS011;10317;47.254;11.314;2023-02-01T05:41:32;10.10;;;6.03;;
20318;SDS011;10317;47.254;11.314;2023-02-01T05:43:57;8.27;;;6.23;;
20318;SDS011;10317;47.254;11.314;2023-02-01T05:46:23;11.83;;;5.33;;
20318;SDS011;10317;47.254;11.314;2023-02-01T05:48:49;7.93;;;5.47;;
20318;SDS011;10317;47.254;11.314;2023-02-01T05:51:14;8.23;;;5.37;;
20318;SDS011;10317;47.254;11.314;2023-02-01T05:53:40;8.97;;;6.20;;
20318;SDS011;10317;47.254;11.314;2023-02-01T05:56:06;9.38;;;6.65;;
20318;SDS011;10317;47.254;11.314;2023-02-01T05:58:32;8.70;;;5.00;;
20318;SDS011;10317;47.254;11.314;2023-02-01T06:01:01;10.00;;;5.85;;
20318;SDS011;10317;47.254;11.314;2023-02-01T06:03:28;9.43;;;5.65;;
20318;SDS011;10317;47.254;11.314;2023-02-01T06:05:54;14.23;;;9.25;;
20318;SDS011;10317;47.254;11.314;2023-02-01T06:08:19;19.00;;;15.40;;
20318;SDS011;10317;47.254;11.314;2023-02-01T06:10:45;23.77;;;16.55;;
20318;SDS011;10317;47.254;11.314;2023-02-01T06:13:11;16.10;;;10.18;;
20318;SDS011;10317;47.254;11.314;2023-02-01T06:15:37;12.52;;;6.97;;
20318;SDS011;10317;47.254;11.314;2023-02-01T06:18:03;9.43;;;6.90;;
20318;SDS011;10317;47.254;11.314;2023-02-01T06:20:29;10.33;;;7.23;;
20318;SDS011;10317;47.254;11.314;2023-02-01T06:22:55;12.03;;;7.83;;
20318;SDS011;10317;47.254;11.314;2023-02-01T06:25:20;11.05;;;6.30;;
20318;SDS011;10317;47.254;11.314;2023-02-01T06:27:46;9.40;;;5.90;;
20318;SDS011;10317;47.254;11.314;2023-02-01T06:30:13;10.50;;;6.05;;
20318;SDS011;10317;47.254;11.314;2023-02-01T06:32:39;11.77;;;6.20;;
20318;SDS011;10317;47.254;11.314;2023-02-01T06:35:08;13.45;;;6.15;;
20318;SDS011;10317;47.254;11.314;2023-02-01T06:37:41;9.70;;;5.93;;
20318;SDS011;10317;47.254;11.314;2023-02-01T06:40:07;10.02;;;5.38;;
20318;SDS011;10317;47.254;11.314;2023-02-01T06:42:33;9.73;;;5.90;;
20318;SDS011;10317;47.254;11.314;2023-02-01T06:44:59;9.13;;;5.50;;
20318;SDS011;10317;47.254;11.314;2023-02-01T06:47:25;9.57;;;5.70;;
20318;SDS011;10317;47.254;11.314;2023-02-01T06:49:50;9.23;;;5.57;;
20318;SDS011;10317;47.254;11.314;2023-02-01T06:52:16;6.27;;;5.37;;
20318;SDS011;10317;47.254;11.314;2023-02-01T06:54:42;8.83;;;5.33;;
20318;SDS011;10317;47.254;11.314;2023-02-01T06:57:07;11.63;;;5.77;;
20318;SDS011;10317;47.254;11.314;2023-02-01T06:59:33;11.17;;;5.70;;
20318;SDS011;10317;47.254;11.314;2023-02-01T07:01:58;11.87;;;5.77;;
20318;SDS011;10317;47.254;11.314;2023-02-01T07:04:24;14.90;;;6.03;;
20318;SDS011;10317;47.254;11.314;2023-02-01T07:06:50;11.67;;;6.13;;
20318;SDS011;10317;47.254;11.314;2023-02-01T07:09:15;8.70;;;5.83;;
20318;SDS011;10317;47.254;11.314;2023-02-01T07:11:41;16.93;;;6.03;;
20318;SDS011;10317;47.254;11.314;2023-02-01T07:14:09;12.07;;;6.17;;
20318;SDS011;10317;47.254;11.314;2023-02-01T07:16:35;8.83;;;6.23;;
20318;SDS011;10317;47.254;11.314;2023-02-01T07:19:01;11.88;;;6.50;;
20318;SDS011;10317;47.254;11.314;2023-02-01T07:21:27;11.00;;;7.20;;
20318;SDS011;10317;47.254;11.314;2023-02-01T07:23:54;9.15;;;6.07;;
20318;SDS011;10317;47.254;11.314;2023-02-01T07:26:20;15.60;;;9.25;;
20318;SDS011;10317;47.254;11.314;2023-02-01T07:28:46;12.17;;;6.07;;
20318;SDS011;10317;47.254;11.314;2023-02-01T07:31:13;8.53;;;6.40;;
20318;SDS011;10317;47.254;11.314;2023-02-01T07:33:40;13.52;;;7.07;;
20318;SDS011;10317;47.254;11.314;2023-02-01T07:36:07;8.43;;;5.88;;
20318;SDS011;10317;47.254;11.314;2023-02-01T07:38:36;11.65;;;5.70;;
20318;SDS011;10317;47.254;11.314;2023-02-01T07:41:03;11.93;;;7.03;;
20318;SDS011;10317;47.254;11.314;2023-02-01T07:43:30;13.23;;;7.07;;
20318;SDS011;10317;47.254;11.314;2023-02-01T07:45:56;8.38;;;5.65;;
20318;SDS011;10317;47.254;11.314;2023-02-01T07:48:22;12.57;;;6.45;;
20318;SDS011;10317;47.254;11.314;2023-02-01T07:50:56;11.98;;;6.22;;
20318;SDS011;10317;47.254;11.314;2023-02-01T07:53:25;14.50;;;8.10;;
20318;SDS011;10317;47.254;11.314;2023-02-01T07:55:51;13.35;;;7.35;;
20318;SDS011;10317;47.254;11.314;2023-02-01T07:58:17;10.75;;;7.10;;
20318;SDS011;10317;47.254;11.314;2023-02-01T08:00:42;14.48;;;6.72;;
20318;SDS011;10317;47.254;11.314;2023-02-01T08:03:26;14.25;;;6.22;;
20318;SDS011;10317;47.254;11.314;2023-02-01T08:05:55;12.43;;;6.15;;
20318;SDS011;10317;47.254;11.314;2023-02-01T08:08:21;13.77;;;8.52;;
20318;SDS011;10317;47.254;11.314;2023-02-01T08:10:47;19.10;;;10.75;;
20318;SDS011;10317;47.254;11.314;2023-02-01T08:13:13;15.43;;;7.50;;
20318;SDS011;10317;47.254;11.314;2023-02-01T08:15:39;12.88;;;6.88;;
20318;SDS011;10317;47.254;11.314;2023-02-01T08:18:05;10.43;;;6.32;;
20318;SDS011;10317;47.254;11.314;2023-02-01T08:20:34;11.43;;;6.97;;
20318;SDS011;10317;47.254;11.314;2023-02-01T08:23:01;11.75;;;7.70;;
20318;SDS011;10317;47.254;11.314;2023-02-01T08:25:26;12.93;;;7.07;;
20318;SDS011;10317;47.254;11.314;2023-02-01T08:27:53;21.58;;;10.02;;
20318;SDS011;10317;47.254;11.314;2023-02-01T08:30:19;10.10;;;8.15;;
20318;SDS011;10317;47.254;11.314;2023-02-01T08:32:46;14.50;;;7.90;;
20318;SDS011;10317;47.254;11.314;2023-02-01T08:35:13;13.52;;;7.95;;
20318;SDS011;10317;47.254;11.314;2023-02-01T08:37:42;20.05;;;10.73;;
20318;SDS011;10317;47.254;11.314;2023-02-01T08:40:08;17.80;;;10.63;;
20318;SDS011;10317;47.254;11.314;2023-02-01T08:42:34;17.42;;;10.25;;
20318;SDS011;10317;47.254;11.314;2023-02-01T08:45:23;16.88;;;10.30;;
20318;SDS011;10317;47.254;11.314;2023-02-01T08:47:51;16.85;;;10.30;;
20318;SDS011;10317;47.254;11.314;2023-02-01T08:50:17;18.20;;;10.20;;
20318;SDS011;10317;47.254;11.314;2023-02-01T08:52:46;14.25;;;8.85;;
20318;SDS011;10317;47.254;11.314;2023-02-01T08:55:13;14.05;;;9.18;;
20318;SDS011;10317;47.254;11.314;2023-02-01T08:57:41;15.02;;;9.38;;
20318;SDS011;10317;47.254;11.314;2023-02-01T09:00:09;13.05;;;8.98;;
20318;SDS011;10317;47.254;11.314;2023-02-01T09:02:37;18.70;;;9.95;;
20318;SDS011;10317;47.254;11.314;2023-02-01T09:05:04;15.27;;;10.07;;
20318;SDS011;10317;47.254;11.314;2023-02-01T09:07:31;19.20;;;10.93;;
20318;SDS011;10317;47.254;11.314;2023-02-01T09:09:57;15.05;;;10.00;;
20318;SDS011;10317;47.254;11.314;2023-02-01T09:12:25;14.45;;;9.30;;
20318;SDS011;10317;47.254;11.314;2023-02-01T09:14:53;22.60;;;9.77;;
20318;SDS011;10317;47.254;11.314;2023-02-01T09:17:21;17.42;;;10.27;;
20318;SDS011;10317;47.254;11.314;2023-02-01T09:19:47;15.52;;;9.77;;
20318;SDS011;10317;47.254;11.314;2023-02-01T09:22:12;13.38;;;9.75;;
20318;SDS011;10317;47.254;11.314;2023-02-01T09:24:40;16.27;;;9.10;;
20318;SDS011;10317;47.254;11.314;2023-02-01T09:27:06;19.73;;;9.70;;
20318;SDS011;10317;47.254;11.314;2023-02-01T09:29:32;14.25;;;8.52;;
20318;SDS011;10317;47.254;11.314;2023-02-01T09:31:58;13.30;;;8.60;;
20318;SDS011;10317;47.254;11.314;2023-02-01T09:34:23;15.50;;;9.57;;
20318;SDS011;10317;47.254;11.314;2023-02-01T09:37:02;14.35;;;10.10;;
20318;SDS011;10317;47.254;11.314;2023-02-01T09:39:27;20.77;;;12.30;;
20318;SDS011;10317;47.254;11.314;2023-02-01T09:42:02;20.85;;;11.15;;
20318;SDS011;10317;47.254;11.314;2023-02-01T09:45:24;18.25;;;10.55;;
20318;SDS011;10317;47.254;11.314;2023-02-01T09:47:54;17.35;;;10.93;;
20318;SDS011;10317;47.254;11.314;2023-02-01T09:50:30;17.30;;;9.80;;
20318;SDS011;10317;47.254;11.314;2023-02-01T09:55:38;17.10;;;9.82;;
20318;SDS011;10317;47.254;11.314;2023-02-01T10:00:52;21.25;;;11.45;;
20318;SDS011;10317;47.254;11.314;2023-02-01T10:03:20;15.90;;;9.18;;
20318;SDS011;10317;47.254;11.314;2023-02-01T10:10:51;10.68;;;8.18;;
20318;SDS011;10317;47.254;11.314;2023-02-01T10:16:02;20.25;;;9.48;;
20318;SDS011;10317;47.254;11.314;2023-02-01T10:18:57;22.15;;;9.63;;
20318;SDS011;10317;47.254;11.314;2023-02-01T10:21:54;15.07;;;9.25;;
20318;SDS011;10317;47.254;11.314;2023-02-01T10:24:57;17.88;;;9.20;;
20318;SDS011;10317;47.254;11.314;2023-02-01T10:27:29;16.95;;;8.00;;
20318;SDS011;10317;47.254;11.314;2023-02-01T10:30:03;16.20;;;8.63;;
20318;SDS011;10317;47.254;11.314;2023-02-01T10:32:35;17.13;;;8.43;;
20318;SDS011;10317;47.254;11.314;2023-02-01T10:35:13;20.13;;;9.05;;
20318;SDS011;10317;47.254;11.314;2023-02-01T10:37:55;18.55;;;10.48;;
20318;SDS011;10317;47.254;11.314;2023-02-01T10:40:24;17.75;;;10.15;;
20318;SDS011;10317;47.254;11.314;2023-02-01T10:42:52;23.92;;;10.30;;
20318;SDS011;10317;47.254;11.314;2023-02-01T10:45:22;20.35;;;9.60;;
20318;SDS011;10317;47.254;11.314;2023-02-01T10:47:54;15.57;;;9.43;;
20318;SDS011;10317;47.254;11.314;2023-02-01T10:58:25;23.55;;;9.90;;
20318;SDS011;10317;47.254;11.314;2023-02-01T11:01:00;21.98;;;8.70;;
20318;SDS011;10317;47.254;11.314;2023-02-01T11:08:57;13.10;;;8.52;;
20318;SDS011;10317;47.254;11.314;2023-02-01T11:11:52;16.25;;;8.20;;
20318;SDS011;10317;47.254;11.314;2023-02-01T11:14:42;13.65;;;7.88;;
20318;SDS011;10317;47.254;11.314;2023-02-01T11:17:26;12.60;;;8.10;;
20318;SDS011;10317;47.254;11.314;2023-02-01T11:20:00;15.10;;;8.52;;
20318;SDS011;10317;47.254;11.314;2023-02-01T11:22:28;12.95;;;8.27;;
20318;SDS011;10317;47.254;11.314;2023-02-01T11:24:55;16.58;;;7.88;;
20318;SDS011;10317;47.254;11.314;2023-02-01T11:27:22;14.20;;;8.30;;
20318;SDS011;10317;47.254;11.314;2023-02-01T11:29:50;15.40;;;9.23;;
20318;SDS011;10317;47.254;11.314;2023-02-01T11:32:20;12.90;;;8.85;;
20318;SDS011;10317;47.254;11.314;2023-02-01T11:34:48;15.00;;;8.45;;
20318;SDS011;10317;47.254;11.314;2023-02-01T11:39:59;14.55;;;8.68;;
20318;SDS011;10317;47.254;11.314;2023-02-01T11:42:32;17.92;;;10.05;;
20318;SDS011;10317;47.254;11.314;2023-02-01T11:47:53;27.35;;;12.27;;
20318;SDS011;10317;47.254;11.314;2023-02-01T11:50:28;35.78;;;16.33;;
20318;SDS011;10317;47.254;11.314;2023-02-01T11:53:19;28.80;;;12.73;;
20318;SDS011;10317;47.254;11.314;2023-02-01T12:01:35;22.65;;;13.02;;
20318;SDS011;10317;47.254;11.314;2023-02-01T12:10:04;20.33;;;11.63;;
20318;SDS011;10317;47.254;11.314;2023-02-01T12:15:35;18.55;;;10.80;;
20318;SDS011;10317;47.254;11.314;2023-02-01T12:18:26;18.83;;;10.40;;
20318;SDS011;10317;47.254;11.314;2023-02-01T12:23:49;18.55;;;10.00;;
20318;SDS011;10317;47.254;11.314;2023-02-01T12:29:48;18.25;;;7.63;;
20318;SDS011;10317;47.254;11.314;2023-02-01T12:38:12;8.75;;;6.47;;
20318;SDS011;10317;47.254;11.314;2023-02-01T12:48:49;4.90;;;2.38;;
20318;SDS011;10317;47.254;11.314;2023-02-01T12:51:29;1.63;;;1.52;;
20318;SDS011;10317;47.254;11.314;2023-02-01T12:54:06;1.67;;;1.63;;
20318;SDS011;10317;47.254;11.314;2023-02-01T12:56:48;0.90;;;0.90;;
20318;SDS011;10317;47.254;11.314;2023-02-01T13:02:29;0.88;;;0.88;;
20318;SDS011;10317;47.254;11.314;2023-02-01T13:05:17;0.70;;;0.70;;
20318;SDS011;10317;47.254;11.314;2023-02-01T13:07:55;0.70;;;0.70;;
20318;SDS011;10317;47.254;11.314;2023-02-01T13:10:34;0.73;;;0.73;;
20318;SDS011;10317;47.254;11.314;2023-02-01T13:13:04;0.70;;;0.70;;
20318;SDS011;10317;47.254;11.314;2023-02-01T13:15:46;0.80;;;0.80;;
20318;SDS011;10317;47.254;11.314;2023-02-01T13:18:20;0.60;;;0.60;;
20318;SDS011;10317;47.254;11.314;2023-02-01T13:23:40;1.00;;;0.77;;
20318;SDS011;10317;47.254;11.314;2023-02-01T13:26:08;0.60;;;0.60;;
20318;SDS011;10317;47.254;11.314;2023-02-01T13:33:59;0.68;;;0.68;;
20318;SDS011;10317;47.254;11.314;2023-02-01T13:42:27;0.60;;;0.60;;
20318;SDS011;10317;47.254;11.314;2023-02-01T13:44:59;0.70;;;0.70;;
20318;SDS011;10317;47.254;11.314;2023-02-01T13:47:38;0.75;;;0.75;;
20318;SDS011;10317;47.254;11.314;2023-02-01T13:53:16;0.68;;;0.65;;
20318;SDS011;10317;47.254;11.314;2023-02-01T13:58:53;0.60;;;0.60;;
20318;SDS011;10317;47.254;11.314;2023-02-01T14:09:37;0.52;;;0.52;;
20318;SDS011;10317;47.254;11.314;2023-02-01T14:21:57;0.60;;;0.60;;
20318;SDS011;10317;47.254;11.314;2023-02-01T14:24:32;0.80;;;0.80;;
20318;SDS011;10317;47.254;11.314;2023-02-01T14:27:00;0.70;;;0.70;;
20318;SDS011;10317;47.254;11.314;2023-02-01T14:29:42;0.70;;;0.70;;
20318;SDS011;10317;47.254;11.314;2023-02-01T14:32:21;0.80;;;0.80;;
20318;SDS011;10317;47.254;11.314;2023-02-01T14:34:51;0.60;;;0.60;;
20318;SDS011;10317;47.254;11.314;2023-02-01T14:47:47;0.60;;;0.60;;
20318;SDS011;10317;47.254;11.314;2023-02-01T14:55:26;0.60;;;0.60;;
20318;SDS011;10317;47.254;11.314;2023-02-01T14:58:06;0.50;;;0.50;;
20318;SDS011;10317;47.254;11.314;2023-02-01T15:00:53;0.60;;;0.60;;
20318;SDS011;10317;47.254;11.314;2023-02-01T15:03:34;1.17;;;0.63;;
20318;SDS011;10317;47.254;11.314;2023-02-01T15:06:12;0.63;;;0.63;;
20318;SDS011;10317;47.254;11.314;2023-02-01T15:08:59;0.68;;;0.68;;
20318;SDS011;10317;47.254;11.314;2023-02-01T15:14:25;0.60;;;0.60;;
20318;SDS011;10317;47.254;11.314;2023-02-01T15:16:52;0.70;;;0.70;;
20318;SDS011;10317;47.254;11.314;2023-02-01T15:19:19;0.70;;;0.70;;
20318;SDS011;10317;47.254;11.314;2023-02-01T15:21:48;0.77;;;0.77;;
20318;SDS011;10317;47.254;11.314;2023-02-01T15:24:20;0.82;;;0.82;;
20318;SDS011;10317;47.254;11.314;2023-02-01T15:26:51;0.70;;;0.70;;
20318;SDS011;10317;47.254;11.314;2023-02-01T15:29:19;0.90;;;0.70;;
20318;SDS011;10317;47.254;11.314;2023-02-01T15:31:51;0.70;;;0.70;;
20318;SDS011;10317;47.254;11.314;2023-02-01T15:34:17;0.60;;;0.60;;
20318;SDS011;10317;47.254;11.314;2023-02-01T15:36:44;1.85;;;0.80;;
20318;SDS011;10317;47.254;11.314;2023-02-01T15:39:18;0.60;;;0.60;;
20318;SDS011;10317;47.254;11.314;2023-02-01T15:44:40;0.55;;;0.55;;
20318;SDS011;10317;47.254;11.314;2023-02-01T15:49:44;0.70;;;0.70;;
20318;SDS011;10317;47.254;11.314;2023-02-01T15:52:39;0.70;;;0.70;;
20318;SDS011;10317;47.254;11.314;2023-02-01T15:55:20;0.60;;;0.60;;
20318;SDS011;10317;47.254;11.314;2023-02-01T15:57:47;0.60;;;0.60;;
20318;SDS011;10317;47.254;11.314;2023-02-01T16:00:24;0.60;;;0.60;;
20318;SDS011;10317;47.254;11.314;2023-02-01T16:02:59;0.90;;;0.90;;
20318;SDS011;10317;47.254;11.314;2023-02-01T16:07:59;0.77;;;0.77;;
20318;SDS011;10317;47.254;11.314;2023-02-01T16:10:29;0.75;;;0.70;;
20318;SDS011;10317;47.254;11.314;2023-02-01T16:12:55;1.55;;;0.98;;
20318;SDS011;10317;47.254;11.314;2023-02-01T16:15:25;1.38;;;0.80;;
20318;SDS011;10317;47.254;11.314;2023-02-01T16:17:55;0.75;;;0.75;;
20318;SDS011;10317;47.254;11.314;2023-02-01T16:20:21;0.88;;;0.88;;
20318;SDS011;10317;47.254;11.314;2023-02-01T16:22:47;0.70;;;0.70;;
20318;SDS011;10317;47.254;11.314;2023-02-01T16:25:12;1.27;;;0.70;;
20318;SDS011;10317;47.254;11.314;2023-02-01T16:27:38;0.70;;;0.70;;
20318;SDS011;10317;47.254;11.314;2023-02-01T16:30:04;1.17;;;0.80;;
20318;SDS011;10317;47.254;11.314;2023-02-01T16:32:30;0.60;;;0.60;;
20318;SDS011;10317;47.254;11.314;2023-02-01T16:34:56;0.82;;;0.80;;
20318;SDS011;10317;47.254;11.314;2023-02-01T16:37:23;0.70;;;0.70;;
20318;SDS011;10317;47.254;11.314;2023-02-01T16:39:50;0.70;;;0.70;;
20318;SDS011;10317;47.254;11.314;2023-02-01T16:42:27;0.85;;;0.85;;
20318;SDS011;10317;47.254;11.314;2023-02-01T17:40:14;1.17;;;0.80;;
20318;SDS011;10317;47.254;11.314;2023-02-01T17:45:37;0.82;;;0.80;;
20318;SDS011;10317;47.254;11.314;2023-02-01T17:48:28;1.52;;;1.00;;
20318;SDS011;10317;47.254;11.314;2023-02-01T17:50:59;1.50;;;1.40;;
20318;SDS011;10317;47.254;11.314;2023-02-01T20:38:59;1.15;;;1.15;;
20318;SDS011;10317;47.254;11.314;2023-02-01T20:42:13;1.00;;;1.00;;
20318;SDS011;10317;47.254;11.314;2023-02-01T20:44:53;1.10;;;1.10;;
20318;SDS011;10317;47.254;11.314;2023-02-01T22:06:36;1.00;;;1.00;;
20318;SDS011;10317;47.254;11.314;2023-02-01T22:25:40;1.33;;;0.90;;
20318;SDS011;10317;47.254;11.314;2023-02-01T22:45:49;1.10;;;1.10;;
20318;SDS011;10317;47.254;11.314;2023-02-01T22:52:42;2.45;;;0.98;;
20318;SDS011;10317;47.254;11.314;2023-02-01T22:58:40;0.82;;;0.82;;
20318;SDS011;10317;47.254;11.314;2023-02-01T23:01:23;1.10;;;1.10;;
20318;SDS011;10317;47.254;11.314;2023-02-01T23:03:59;1.67;;;1.30;;
20318;SDS011;10317;47.254;11.314;2023-02-01T23:06:45;0.75;;;0.75;;
20318;SDS011;10317;47.254;11.314;2023-02-01T23:09:22;0.80;;;0.80;;
20318;SDS011;10317;47.254;11.314;2023-02-01T23:11:50;1.60;;;1.58;;
20318;SDS011;10317;47.254;11.314;2023-02-01T23:14:16;0.70;;;0.70;;
